sensor_id;sensor_type;location;lat;lon;timestamp;pressure;altitude;pressure_sealevel;temperature;humidity
76627;BME280;65519;53.230;10.390;2023-05-10T00:00:08;100523.97;;;14.51;45.49
76627;BME280;65519;53.230;10.390;2023-05-10T00:02:34;100531.47;;;14.45;45.71
76627;BME280;65519;53.230;10.390;2023-05-10T00:04:59;100521.22;;;14.32;45.75
76627;BME280;65519;53.230;10.390;2023-05-10T00:07:25;100529.03;;;14.44;45.99
76627;BME280;65519;53.230;10.390;2023-05-10T00:09:50;100518.88;;;14.44;45.47
76627;BME280;65519;53.230;10.390;2023-05-10T00:12:16;100520.56;;;14.40;45.83
76627;BME280;65519;53.230;10.390;2023-05-10T00:14:42;100509.31;;;14.42;45.13
76627;BME280;65519;53.230;10.390;2023-05-10T00:17:07;100512.03;;;14.42;45.52
76627;BME280;65519;53.230;10.390;2023-05-10T00:19:32;100506.63;;;14.37;46.63
76627;BME280;65519;53.230;10.390;2023-05-10T00:21:58;100507.91;;;14.25;46.87
76627;BME280;65519;53.230;10.390;2023-05-10T00:24:23;100506.31;;;14.19;47.21
76627;BME280;65519;53.230;10.390;2023-05-10T00:26:48;100511.00;;;14.19;46.17
76627;BME280;65519;53.230;10.390;2023-05-10T00:29:14;100500.66;;;14.16;46.13
76627;BME280;65519;53.230;10.390;2023-05-10T00:31:39;100496.03;;;14.11;47.13
76627;BME280;65519;53.230;10.390;2023-05-10T00:34:05;100483.31;;;14.02;47.23
76627;BME280;65519;53.230;10.390;2023-05-10T00:36:30;100499.84;;;14.15;46.81
76627;BME280;65519;53.230;10.390;2023-05-10T00:38:56;100482.72;;;14.05;47.32
76627;BME280;65519;53.230;10.390;2023-05-10T00:41:21;100489.31;;;14.04;47.37
76627;BME280;65519;53.230;10.390;2023-05-10T00:43:47;100483.53;;;14.05;46.75
76627;BME280;65519;53.230;10.390;2023-05-10T00:46:14;100479.88;;;14.10;47.20
76627;BME280;65519;53.230;10.390;2023-05-10T00:48:41;100484.34;;;14.06;47.07
76627;BME280;65519;53.230;10.390;2023-05-10T00:51:06;100480.84;;;14.00;47.64
76627;BME280;65519;53.230;10.390;2023-05-10T00:53:32;100480.63;;;13.97;46.85
76627;BME280;65519;53.230;10.390;2023-05-10T00:55:59;100472.22;;;13.93;47.37
76627;BME280;65519;53.230;10.390;2023-05-10T00:58:24;100471.00;;;13.99;47.34
76627;BME280;65519;53.230;10.390;2023-05-10T01:00:54;100463.38;;;13.96;47.47
76627;BME280;65519;53.230;10.390;2023-05-10T01:03:21;100463.16;;;13.93;47.19
76627;BME280;65519;53.230;10.390;2023-05-10T01:05:46;100463.53;;;13.86;48.30
76627;BME280;65519;53.230;10.390;2023-05-10T01:08:12;100458.41;;;13.79;47.82
76627;BME280;65519;53.230;10.390;2023-05-10T01:10:37;100458.13;;;13.81;48.44
76627;BME280;65519;53.230;10.390;2023-05-10T01:13:03;100453.66;;;13.66;48.81
76627;BME280;65519;53.230;10.390;2023-05-10T01:15:29;100449.78;;;13.72;48.41
76627;BME280;65519;53.230;10.390;2023-05-10T01:17:56;100459.81;;;13.77;48.12
76627;BME280;65519;53.230;10.390;2023-05-10T01:20:22;100463.81;;;13.66;48.29
76627;BME280;65519;53.230;10.390;2023-05-10T01:23:04;100466.41;;;13.57;48.85
76627;BME280;65519;53.230;10.390;2023-05-10T01:30:55;100464.19;;;13.59;48.14
76627;BME280;65519;53.230;10.390;2023-05-10T01:36:16;100462.13;;;13.51;49.35
76627;BME280;65519;53.230;10.390;2023-05-10T01:38:49;100455.59;;;13.47;49.32
76627;BME280;65519;53.230;10.390;2023-05-10T01:46:39;100467.25;;;13.34;49.83
76627;BME280;65519;53.230;10.390;2023-05-10T01:49:10;100474.31;;;13.40;49.84
76627;BME280;65519;53.230;10.390;2023-05-10T01:51:50;100477.38;;;13.33;50.02
76627;BME280;65519;53.230;10.390;2023-05-10T01:54:19;100476.56;;;13.33;49.66
76627;BME280;65519;53.230;10.390;2023-05-10T01:56:52;100471.00;;;13.19;49.77
76627;BME280;65519;53.230;10.390;2023-05-10T01:59:21;100461.44;;;13.17;50.13
76627;BME280;65519;53.230;10.390;2023-05-10T02:01:47;100468.25;;;13.19;49.66
76627;BME280;65519;53.230;10.390;2023-05-10T02:04:15;100469.56;;;13.22;50.33
76627;BME280;65519;53.230;10.390;2023-05-10T02:06:42;100478.06;;;13.20;50.08
76627;BME280;65519;53.230;10.390;2023-05-10T02:09:10;100466.78;;;13.27;50.33
76627;BME280;65519;53.230;10.390;2023-05-10T02:11:38;100462.19;;;13.22;50.11
76627;BME280;65519;53.230;10.390;2023-05-10T02:14:05;100462.47;;;13.21;50.81
76627;BME280;65519;53.230;10.390;2023-05-10T02:16:34;100464.91;;;13.22;50.36
76627;BME280;65519;53.230;10.390;2023-05-10T02:19:01;100467.22;;;13.10;50.59
76627;BME280;65519;53.230;10.390;2023-05-10T02:21:27;100455.97;;;13.17;50.91
76627;BME280;65519;53.230;10.390;2023-05-10T02:23:54;100462.84;;;13.14;50.81
76627;BME280;65519;53.230;10.390;2023-05-10T02:26:21;100455.97;;;13.11;51.25
76627;BME280;65519;53.230;10.390;2023-05-10T02:28:49;100466.72;;;13.08;51.18
76627;BME280;65519;53.230;10.390;2023-05-10T02:31:15;100457.72;;;13.02;50.95
76627;BME280;65519;53.230;10.390;2023-05-10T02:33:42;100459.47;;;12.93;51.16
76627;BME280;65519;53.230;10.390;2023-05-10T02:36:09;100457.84;;;12.92;51.50
76627;BME280;65519;53.230;10.390;2023-05-10T02:38:36;100446.44;;;12.85;50.96
76627;BME280;65519;53.230;10.390;2023-05-10T02:41:02;100443.06;;;12.93;51.65
76627;BME280;65519;53.230;10.390;2023-05-10T02:43:31;100446.88;;;12.97;51.01
76627;BME280;65519;53.230;10.390;2023-05-10T02:45:57;100445.28;;;12.91;51.53
76627;BME280;65519;53.230;10.390;2023-05-10T02:48:22;100451.56;;;12.92;51.19
76627;BME280;65519;53.230;10.390;2023-05-10T02:50:50;100444.28;;;12.82;51.92
76627;BME280;65519;53.230;10.390;2023-05-10T02:53:31;100448.69;;;12.78;52.56
76627;BME280;65519;53.230;10.390;2023-05-10T02:56:00;100443.19;;;12.83;51.59
76627;BME280;65519;53.230;10.390;2023-05-10T02:58:26;100442.59;;;12.86;51.87
76627;BME280;65519;53.230;10.390;2023-05-10T03:00:52;100436.56;;;12.60;53.32
76627;BME280;65519;53.230;10.390;2023-05-10T03:03:17;100445.53;;;12.66;53.03
76627;BME280;65519;53.230;10.390;2023-05-10T03:05:42;100438.13;;;12.66;52.65
76627;BME280;65519;53.230;10.390;2023-05-10T03:08:08;100435.72;;;12.65;52.47
76627;BME280;65519;53.230;10.390;2023-05-10T03:10:40;100442.19;;;12.74;52.53
76627;BME280;65519;53.230;10.390;2023-05-10T03:13:56;100439.06;;;12.57;52.77
76627;BME280;65519;53.230;10.390;2023-05-10T03:16:15;100425.88;;;12.64;52.85
76627;BME280;65519;53.230;10.390;2023-05-10T03:18:55;100433.19;;;12.68;52.58
76627;BME280;65519;53.230;10.390;2023-05-10T03:21:22;100430.75;;;12.67;52.54
76627;BME280;65519;53.230;10.390;2023-05-10T03:23:57;100439.03;;;12.62;52.87
76627;BME280;65519;53.230;10.390;2023-05-10T03:26:25;100430.47;;;12.68;52.75
76627;BME280;65519;53.230;10.390;2023-05-10T03:28:52;100426.56;;;12.51;52.80
76627;BME280;65519;53.230;10.390;2023-05-10T03:31:18;100427.56;;;12.60;53.44
76627;BME280;65519;53.230;10.390;2023-05-10T03:33:51;100433.84;;;12.60;53.05
76627;BME280;65519;53.230;10.390;2023-05-10T03:36:17;100430.81;;;12.62;53.02
76627;BME280;65519;53.230;10.390;2023-05-10T03:38:42;100439.28;;;12.65;52.77
76627;BME280;65519;53.230;10.390;2023-05-10T03:41:08;100435.22;;;12.58;52.99
76627;BME280;65519;53.230;10.390;2023-05-10T03:43:33;100436.84;;;12.59;53.07
76627;BME280;65519;53.230;10.390;2023-05-10T03:46:01;100433.16;;;12.44;53.43
76627;BME280;65519;53.230;10.390;2023-05-10T03:48:27;100436.03;;;12.58;53.16
76627;BME280;65519;53.230;10.390;2023-05-10T03:50:52;100430.84;;;12.57;53.01
76627;BME280;65519;53.230;10.390;2023-05-10T03:53:17;100435.22;;;12.58;53.66
76627;BME280;65519;53.230;10.390;2023-05-10T03:55:43;100436.31;;;12.57;53.90
76627;BME280;65519;53.230;10.390;2023-05-10T03:58:11;100429.56;;;12.49;53.84
76627;BME280;65519;53.230;10.390;2023-05-10T04:00:36;100426.50;;;12.56;53.27
76627;BME280;65519;53.230;10.390;2023-05-10T04:03:02;100434.47;;;12.52;53.46
76627;BME280;65519;53.230;10.390;2023-05-10T04:05:27;100427.22;;;12.37;53.97
76627;BME280;65519;53.230;10.390;2023-05-10T04:07:53;100439.69;;;12.49;53.39
76627;BME280;65519;53.230;10.390;2023-05-10T04:10:18;100435.28;;;12.53;53.55
76627;BME280;65519;53.230;10.390;2023-05-10T04:12:44;100441.84;;;12.52;54.31
76627;BME280;65519;53.230;10.390;2023-05-10T04:15:09;100439.34;;;12.55;53.74
76627;BME280;65519;53.230;10.390;2023-05-10T04:17:34;100438.88;;;12.48;53.81
76627;BME280;65519;53.230;10.390;2023-05-10T04:20:00;100438.06;;;12.48;53.85
76627;BME280;65519;53.230;10.390;2023-05-10T04:22:25;100438.06;;;12.48;53.96
76627;BME280;65519;53.230;10.390;2023-05-10T04:24:51;100439.78;;;12.38;53.57
76627;BME280;65519;53.230;10.390;2023-05-10T04:27:16;100431.50;;;12.49;54.02
76627;BME280;65519;53.230;10.390;2023-05-10T04:29:41;100430.38;;;12.50;54.04
76627;BME280;65519;53.230;10.390;2023-05-10T04:32:07;100435.00;;;12.54;53.75
76627;BME280;65519;53.230;10.390;2023-05-10T04:34:33;100435.31;;;12.48;54.25
76627;BME280;65519;53.230;10.390;2023-05-10T04:36:59;100443.53;;;12.48;54.10
76627;BME280;65519;53.230;10.390;2023-05-10T04:39:24;100423.84;;;12.46;55.04
76627;BME280;65519;53.230;10.390;2023-05-10T04:41:50;100434.78;;;12.46;54.19
76627;BME280;65519;53.230;10.390;2023-05-10T04:44:15;100434.84;;;12.40;55.34
76627;BME280;65519;53.230;10.390;2023-05-10T04:46:41;100428.22;;;12.47;54.73
76627;BME280;65519;53.230;10.390;2023-05-10T04:49:06;100433.69;;;12.47;54.03
76627;BME280;65519;53.230;10.390;2023-05-10T04:51:31;100428.19;;;12.52;53.93
76627;BME280;65519;53.230;10.390;2023-05-10T04:53:57;100440.22;;;12.51;54.59
76627;BME280;65519;53.230;10.390;2023-05-10T04:56:22;100436.00;;;12.63;54.33
76627;BME280;65519;53.230;10.390;2023-05-10T04:58:48;100436.81;;;12.64;54.31
76627;BME280;65519;53.230;10.390;2023-05-10T05:01:13;100438.44;;;12.65;54.55
76627;BME280;65519;53.230;10.390;2023-05-10T05:03:39;100446.66;;;12.65;54.19
76627;BME280;65519;53.230;10.390;2023-05-10T05:06:04;100434.97;;;12.83;53.52
76627;BME280;65519;53.230;10.390;2023-05-10T05:08:30;100435.00;;;12.78;53.25
76627;BME280;65519;53.230;10.390;2023-05-10T05:10:55;100436.41;;;12.99;53.24
76627;BME280;65519;53.230;10.390;2023-05-10T05:13:20;100444.28;;;13.06;52.36
76627;BME280;65519;53.230;10.390;2023-05-10T05:15:46;100418.91;;;13.00;52.79
76627;BME280;65519;53.230;10.390;2023-05-10T05:18:11;100436.81;;;13.17;52.73
76627;BME280;65519;53.230;10.390;2023-05-10T05:20:37;100420.91;;;13.19;52.38
76627;BME280;65519;53.230;10.390;2023-05-10T05:23:02;100436.91;;;13.30;52.25
76627;BME280;65519;53.230;10.390;2023-05-10T05:25:28;100433.53;;;13.38;52.59
76627;BME280;65519;53.230;10.390;2023-05-10T05:27:53;100421.22;;;13.36;52.42
76627;BME280;65519;53.230;10.390;2023-05-10T05:30:19;100428.88;;;13.39;53.04
76627;BME280;65519;53.230;10.390;2023-05-10T05:32:45;100424.00;;;13.31;52.60
76627;BME280;65519;53.230;10.390;2023-05-10T05:35:12;100438.09;;;13.43;52.40
76627;BME280;65519;53.230;10.390;2023-05-10T05:37:37;100441.81;;;13.52;51.31
76627;BME280;65519;53.230;10.390;2023-05-10T05:40:03;100437.97;;;13.53;51.76
76627;BME280;65519;53.230;10.390;2023-05-10T05:42:30;100436.13;;;13.48;51.96
76627;BME280;65519;53.230;10.390;2023-05-10T05:44:56;100447.19;;;13.62;51.84
76627;BME280;65519;53.230;10.390;2023-05-10T05:47:21;100445.59;;;13.75;50.98
76627;BME280;65519;53.230;10.390;2023-05-10T05:49:46;100444.19;;;13.77;51.49
76627;BME280;65519;53.230;10.390;2023-05-10T05:52:12;100445.38;;;13.90;51.50
76627;BME280;65519;53.230;10.390;2023-05-10T05:54:37;100452.28;;;13.87;51.45
76627;BME280;65519;53.230;10.390;2023-05-10T05:57:03;100443.47;;;13.91;51.67
76627;BME280;65519;53.230;10.390;2023-05-10T05:59:28;100449.84;;;14.05;50.70
76627;BME280;65519;53.230;10.390;2023-05-10T06:01:54;100454.84;;;13.98;51.48
76627;BME280;65519;53.230;10.390;2023-05-10T06:04:19;100451.75;;;14.04;50.99
76627;BME280;65519;53.230;10.390;2023-05-10T06:06:45;100445.28;;;14.14;50.71
76627;BME280;65519;53.230;10.390;2023-05-10T06:09:11;100449.66;;;14.15;50.96
76627;BME280;65519;53.230;10.390;2023-05-10T06:11:36;100446.22;;;14.42;50.41
76627;BME280;65519;53.230;10.390;2023-05-10T06:14:03;100446.75;;;14.44;50.74
76627;BME280;65519;53.230;10.390;2023-05-10T06:16:35;100448.78;;;14.52;50.79
76627;BME280;65519;53.230;10.390;2023-05-10T06:19:01;100454.53;;;14.69;49.78
76627;BME280;65519;53.230;10.390;2023-05-10T06:21:27;100463.19;;;14.44;49.37
76627;BME280;65519;53.230;10.390;2023-05-10T06:23:52;100463.34;;;14.34;50.11
76627;BME280;65519;53.230;10.390;2023-05-10T06:26:18;100460.41;;;14.63;49.44
76627;BME280;65519;53.230;10.390;2023-05-10T06:28:43;100458.31;;;14.41;49.35
76627;BME280;65519;53.230;10.390;2023-05-10T06:31:09;100460.47;;;14.44;49.24
76627;BME280;65519;53.230;10.390;2023-05-10T06:33:36;100452.38;;;14.34;49.54
76627;BME280;65519;53.230;10.390;2023-05-10T06:36:01;100464.44;;;14.33;50.14
76627;BME280;65519;53.230;10.390;2023-05-10T06:38:27;100471.78;;;14.37;50.73
76627;BME280;65519;53.230;10.390;2023-05-10T06:40:52;100476.09;;;14.43;50.38
76627;BME280;65519;53.230;10.390;2023-05-10T06:43:18;100466.66;;;14.49;50.06
76627;BME280;65519;53.230;10.390;2023-05-10T06:45:43;100465.88;;;14.49;49.73
76627;BME280;65519;53.230;10.390;2023-05-10T06:48:08;100468.56;;;14.68;50.15
76627;BME280;65519;53.230;10.390;2023-05-10T06:50:34;100476.22;;;14.52;51.19
76627;BME280;65519;53.230;10.390;2023-05-10T06:53:00;100467.84;;;14.76;50.33
76627;BME280;65519;53.230;10.390;2023-05-10T06:55:27;100476.66;;;14.73;49.91
76627;BME280;65519;53.230;10.390;2023-05-10T06:57:52;100481.53;;;14.62;50.32
76627;BME280;65519;53.230;10.390;2023-05-10T07:00:18;100473.44;;;14.71;50.21
76627;BME280;65519;53.230;10.390;2023-05-10T07:02:44;100465.28;;;14.66;49.74
76627;BME280;65519;53.230;10.390;2023-05-10T07:05:09;100471.47;;;14.71;49.91
76627;BME280;65519;53.230;10.390;2023-05-10T07:07:35;100484.31;;;14.76;49.79
76627;BME280;65519;53.230;10.390;2023-05-10T07:10:00;100480.19;;;14.92;49.60
76627;BME280;65519;53.230;10.390;2023-05-10T07:12:26;100474.19;;;14.90;49.87
76627;BME280;65519;53.230;10.390;2023-05-10T07:14:51;100470.81;;;15.07;49.63
76627;BME280;65519;53.230;10.390;2023-05-10T07:17:16;100476.81;;;15.36;49.35
76627;BME280;65519;53.230;10.390;2023-05-10T07:19:42;100463.22;;;15.45;48.86
76627;BME280;65519;53.230;10.390;2023-05-10T07:22:07;100471.34;;;15.22;49.79
76627;BME280;65519;53.230;10.390;2023-05-10T07:24:33;100480.41;;;15.09;49.98
76627;BME280;65519;53.230;10.390;2023-05-10T07:26:58;100476.63;;;15.32;48.81
76627;BME280;65519;53.230;10.390;2023-05-10T07:29:24;100472.44;;;15.49;49.74
76627;BME280;65519;53.230;10.390;2023-05-10T07:31:49;100466.03;;;15.40;49.62
76627;BME280;65519;53.230;10.390;2023-05-10T07:34:15;100472.25;;;15.31;49.77
76627;BME280;65519;53.230;10.390;2023-05-10T07:36:40;100480.16;;;15.47;49.67
76627;BME280;65519;53.230;10.390;2023-05-10T07:39:06;100485.47;;;15.43;49.33
76627;BME280;65519;53.230;10.390;2023-05-10T07:41:31;100475.09;;;15.40;49.34
76627;BME280;65519;53.230;10.390;2023-05-10T07:43:57;100486.31;;;15.44;50.08
76627;BME280;65519;53.230;10.390;2023-05-10T07:46:23;100479.56;;;15.50;50.45
76627;BME280;65519;53.230;10.390;2023-05-10T07:48:48;100491.97;;;15.47;49.34
76627;BME280;65519;53.230;10.390;2023-05-10T07:51:14;100486.50;;;15.61;49.44
76627;BME280;65519;53.230;10.390;2023-05-10T07:53:39;100484.38;;;15.58;49.30
76627;BME280;65519;53.230;10.390;2023-05-10T07:56:24;100493.72;;;15.70;49.21
76627;BME280;65519;53.230;10.390;2023-05-10T07:58:55;100487.28;;;15.48;49.88
76627;BME280;65519;53.230;10.390;2023-05-10T08:01:21;100485.81;;;15.55;49.02
76627;BME280;65519;53.230;10.390;2023-05-10T08:03:46;100490.50;;;15.55;49.83
76627;BME280;65519;53.230;10.390;2023-05-10T08:06:12;100489.75;;;15.49;49.64
76627;BME280;65519;53.230;10.390;2023-05-10T08:08:38;100497.47;;;15.75;49.11
76627;BME280;65519;53.230;10.390;2023-05-10T08:11:03;100507.16;;;15.72;49.94
76627;BME280;65519;53.230;10.390;2023-05-10T08:13:29;100491.56;;;15.81;49.18
76627;BME280;65519;53.230;10.390;2023-05-10T08:15:54;100507.88;;;15.78;49.30
76627;BME280;65519;53.230;10.390;2023-05-10T08:18:20;100503.25;;;16.00;49.27
76627;BME280;65519;53.230;10.390;2023-05-10T08:20:46;100511.34;;;16.05;48.65
76627;BME280;65519;53.230;10.390;2023-05-10T08:23:14;100509.84;;;15.99;48.90
76627;BME280;65519;53.230;10.390;2023-05-10T08:25:40;100504.59;;;16.12;49.25
76627;BME280;65519;53.230;10.390;2023-05-10T08:28:05;100503.41;;;16.04;48.87
76627;BME280;65519;53.230;10.390;2023-05-10T08:30:31;100511.22;;;15.88;50.32
76627;BME280;65519;53.230;10.390;2023-05-10T08:32:56;100515.59;;;15.89;49.69
76627;BME280;65519;53.230;10.390;2023-05-10T08:35:22;100516.00;;;15.83;49.88
76627;BME280;65519;53.230;10.390;2023-05-10T08:37:47;100517.03;;;15.73;50.16
76627;BME280;65519;53.230;10.390;2023-05-10T08:40:14;100515.63;;;15.62;50.65
76627;BME280;65519;53.230;10.390;2023-05-10T08:42:43;100522.75;;;15.63;51.23
76627;BME280;65519;53.230;10.390;2023-05-10T08:45:09;100531.75;;;15.50;51.54
76627;BME280;65519;53.230;10.390;2023-05-10T08:47:36;100523.53;;;15.50;51.83
76627;BME280;65519;53.230;10.390;2023-05-10T08:50:03;100533.81;;;15.58;51.53
76627;BME280;65519;53.230;10.390;2023-05-10T08:52:30;100538.63;;;15.66;51.83
76627;BME280;65519;53.230;10.390;2023-05-10T08:54:56;100541.06;;;15.67;51.51
76627;BME280;65519;53.230;10.390;2023-05-10T08:57:21;100541.03;;;15.81;51.76
76627;BME280;65519;53.230;10.390;2023-05-10T08:59:47;100541.25;;;15.85;51.34
76627;BME280;65519;53.230;10.390;2023-05-10T09:02:13;100548.97;;;15.69;51.42
76627;BME280;65519;53.230;10.390;2023-05-10T09:04:39;100555.00;;;15.71;51.44
76627;BME280;65519;53.230;10.390;2023-05-10T09:07:05;100551.03;;;15.77;51.56
76627;BME280;65519;53.230;10.390;2023-05-10T09:09:30;100556.41;;;15.82;51.68
76627;BME280;65519;53.230;10.390;2023-05-10T09:11:56;100558.63;;;15.80;52.06
76627;BME280;65519;53.230;10.390;2023-05-10T09:14:23;100553.56;;;15.74;52.15
76627;BME280;65519;53.230;10.390;2023-05-10T09:16:49;100561.28;;;15.85;51.64
76627;BME280;65519;53.230;10.390;2023-05-10T09:19:15;100567.00;;;15.89;52.32
76627;BME280;65519;53.230;10.390;2023-05-10T09:21:40;100566.78;;;15.99;51.63
76627;BME280;65519;53.230;10.390;2023-05-10T09:24:07;100558.13;;;15.92;52.53
76627;BME280;65519;53.230;10.390;2023-05-10T09:26:33;100566.63;;;15.68;53.89
76627;BME280;65519;53.230;10.390;2023-05-10T09:29:00;100563.97;;;15.77;54.18
76627;BME280;65519;53.230;10.390;2023-05-10T09:31:52;100570.66;;;15.70;54.52
76627;BME280;65519;53.230;10.390;2023-05-10T09:34:31;100571.03;;;15.50;55.63
76627;BME280;65519;53.230;10.390;2023-05-10T09:36:59;100581.16;;;15.55;55.40
76627;BME280;65519;53.230;10.390;2023-05-10T09:39:33;100591.53;;;15.58;56.21
76627;BME280;65519;53.230;10.390;2023-05-10T09:42:01;100601.22;;;15.55;56.36
76627;BME280;65519;53.230;10.390;2023-05-10T09:44:29;100590.88;;;15.33;57.66
76627;BME280;65519;53.230;10.390;2023-05-10T09:46:54;100591.66;;;15.20;59.00
76627;BME280;65519;53.230;10.390;2023-05-10T09:49:23;100598.19;;;15.38;58.54
76627;BME280;65519;53.230;10.390;2023-05-10T09:52:00;100594.00;;;15.27;59.63
76627;BME280;65519;53.230;10.390;2023-05-10T09:54:26;100595.94;;;15.26;60.23
76627;BME280;65519;53.230;10.390;2023-05-10T09:56:51;100609.00;;;15.34;60.01
76627;BME280;65519;53.230;10.390;2023-05-10T09:59:18;100605.53;;;15.43;61.26
76627;BME280;65519;53.230;10.390;2023-05-10T10:01:49;100601.59;;;15.03;62.13
76627;BME280;65519;53.230;10.390;2023-05-10T10:04:15;100610.66;;;14.84;65.10
76627;BME280;65519;53.230;10.390;2023-05-10T10:06:40;100619.41;;;14.86;65.98
76627;BME280;65519;53.230;10.390;2023-05-10T10:09:06;100626.06;;;14.48;67.44
76627;BME280;65519;53.230;10.390;2023-05-10T10:11:34;100631.38;;;14.39;69.99
76627;BME280;65519;53.230;10.390;2023-05-10T10:14:00;100630.84;;;14.37;71.33
76627;BME280;65519;53.230;10.390;2023-05-10T10:16:28;100632.72;;;14.18;71.72
76627;BME280;65519;53.230;10.390;2023-05-10T10:18:54;100631.09;;;14.17;72.83
76627;BME280;65519;53.230;10.390;2023-05-10T10:21:20;100645.19;;;14.10;73.00
76627;BME280;65519;53.230;10.390;2023-05-10T10:23:46;100633.94;;;13.88;74.38
76627;BME280;65519;53.230;10.390;2023-05-10T10:26:11;100644.25;;;13.96;74.94
76627;BME280;65519;53.230;10.390;2023-05-10T10:29:10;100647.69;;;13.59;76.95
76627;BME280;65519;53.230;10.390;2023-05-10T10:34:11;100661.91;;;13.61;77.63
76627;BME280;65519;53.230;10.390;2023-05-10T10:36:46;100657.84;;;13.59;78.70
76627;BME280;65519;53.230;10.390;2023-05-10T10:39:12;100660.19;;;13.41;79.72
76627;BME280;65519;53.230;10.390;2023-05-10T10:41:58;100660.03;;;13.57;78.74
76627;BME280;65519;53.230;10.390;2023-05-10T10:47:07;100664.44;;;13.29;80.29
76627;BME280;65519;53.230;10.390;2023-05-10T10:52:26;100668.59;;;13.50;82.24
76627;BME280;65519;53.230;10.390;2023-05-10T10:55:22;100668.91;;;13.48;81.22
76627;BME280;65519;53.230;10.390;2023-05-10T10:57:55;100664.69;;;13.56;81.71
76627;BME280;65519;53.230;10.390;2023-05-10T11:00:36;100673.38;;;13.63;82.18
76627;BME280;65519;53.230;10.390;2023-05-10T11:03:04;100666.22;;;13.67;80.08
76627;BME280;65519;53.230;10.390;2023-05-10T11:10:52;100674.81;;;14.08;81.13
76627;BME280;65519;53.230;10.390;2023-05-10T11:15:55;100665.03;;;14.02;80.30
76627;BME280;65519;53.230;10.390;2023-05-10T11:18:28;100686.81;;;13.88;81.88
76627;BME280;65519;53.230;10.390;2023-05-10T11:21:01;100689.63;;;13.83;82.60
76627;BME280;65519;53.230;10.390;2023-05-10T11:23:32;100694.41;;;13.73;82.12
76627;BME280;65519;53.230;10.390;2023-05-10T11:25:59;100687.72;;;13.55;84.16
76627;BME280;65519;53.230;10.390;2023-05-10T11:28:26;100678.75;;;13.49;82.53
76627;BME280;65519;53.230;10.390;2023-05-10T11:30:52;100680.03;;;13.57;83.53
76627;BME280;65519;53.230;10.390;2023-05-10T11:33:18;100691.44;;;13.64;81.89
76627;BME280;65519;53.230;10.390;2023-05-10T11:35:44;100692.88;;;13.62;81.91
76627;BME280;65519;53.230;10.390;2023-05-10T11:38:11;100694.72;;;13.66;82.25
76627;BME280;65519;53.230;10.390;2023-05-10T11:40:37;100694.63;;;13.76;82.77
76627;BME280;65519;53.230;10.390;2023-05-10T11:43:03;100699.09;;;13.67;83.48
76627;BME280;65519;53.230;10.390;2023-05-10T11:45:32;100703.72;;;13.96;82.34
76627;BME280;65519;53.230;10.390;2023-05-10T11:47:58;100700.69;;;13.73;82.13
76627;BME280;65519;53.230;10.390;2023-05-10T11:50:25;100699.00;;;13.77;82.45
76627;BME280;65519;53.230;10.390;2023-05-10T11:52:55;100703.34;;;13.83;82.87
76627;BME280;65519;53.230;10.390;2023-05-10T11:55:21;100706.28;;;13.87;82.25
76627;BME280;65519;53.230;10.390;2023-05-10T11:57:48;100718.19;;;14.01;82.03
76627;BME280;65519;53.230;10.390;2023-05-10T12:00:16;100706.13;;;14.26;81.89
76627;BME280;65519;53.230;10.390;2023-05-10T12:02:41;100718.88;;;14.36;80.47
76627;BME280;65519;53.230;10.390;2023-05-10T12:05:08;100720.28;;;14.57;81.58
76627;BME280;65519;53.230;10.390;2023-05-10T12:07:33;100727.41;;;14.34;80.10
76627;BME280;65519;53.230;10.390;2023-05-10T12:10:06;100727.38;;;14.39;81.13
76627;BME280;65519;53.230;10.390;2023-05-10T12:12:44;100739.19;;;14.11;81.03
76627;BME280;65519;53.230;10.390;2023-05-10T12:15:18;100730.31;;;14.19;81.83
76627;BME280;65519;53.230;10.390;2023-05-10T12:17:45;100729.81;;;14.41;81.53
76627;BME280;65519;53.230;10.390;2023-05-10T12:20:14;100740.19;;;14.20;80.58
76627;BME280;65519;53.230;10.390;2023-05-10T12:22:43;100745.84;;;14.29;82.30
76627;BME280;65519;53.230;10.390;2023-05-10T12:25:09;100740.59;;;14.32;82.62
76627;BME280;65519;53.230;10.390;2023-05-10T12:27:35;100744.59;;;14.45;82.22
76627;BME280;65519;53.230;10.390;2023-05-10T12:30:01;100754.59;;;14.31;82.03
76627;BME280;65519;53.230;10.390;2023-05-10T12:32:40;100756.72;;;14.15;82.52
76627;BME280;65519;53.230;10.390;2023-05-10T12:35:07;100752.63;;;14.36;82.63
76627;BME280;65519;53.230;10.390;2023-05-10T12:37:33;100742.97;;;14.39;82.36
76627;BME280;65519;53.230;10.390;2023-05-10T12:40:05;100753.16;;;14.38;83.19
76627;BME280;65519;53.230;10.390;2023-05-10T12:42:30;100761.13;;;14.35;81.16
76627;BME280;65519;53.230;10.390;2023-05-10T12:44:56;100760.47;;;14.48;82.25
76627;BME280;65519;53.230;10.390;2023-05-10T12:47:22;100748.97;;;14.46;83.68
76627;BME280;65519;53.230;10.390;2023-05-10T12:49:47;100753.25;;;14.52;83.62
76627;BME280;65519;53.230;10.390;2023-05-10T12:52:13;100758.28;;;14.69;83.79
76627;BME280;65519;53.230;10.390;2023-05-10T12:54:38;100758.13;;;14.79;81.84
76627;BME280;65519;53.230;10.390;2023-05-10T12:57:04;100746.06;;;14.80;81.50
76627;BME280;65519;53.230;10.390;2023-05-10T12:59:29;100753.47;;;14.79;81.46
76627;BME280;65519;53.230;10.390;2023-05-10T13:01:54;100758.28;;;14.87;80.63
76627;BME280;65519;53.230;10.390;2023-05-10T13:04:20;100757.84;;;14.80;80.77
76627;BME280;65519;53.230;10.390;2023-05-10T13:06:45;100770.59;;;14.90;82.95
76627;BME280;65519;53.230;10.390;2023-05-10T13:09:10;100747.44;;;14.77;82.69